Time;durP1;ratioP1;P1;durP2;ratioP2;P2;SDS_P1;SDS_P2;PMS_P1;PMS_P2;Temp;Humidity;BMP_temperature;BMP_pressure;BME280_temperature;BME280_humidity;BME280_pressure;Samples;Min_cycle;Max_cycle;Signal;HPM_P1;HPM_P2
2022/06/17 00:02:10;;;;;;;17.23;12.95;;;;;;;16.56;100.00;97628.44;5009583;28;20089;-84
2022/06/17 00:04:36;;;;;;;15.68;11.95;;;;;;;16.60;100.00;97638.03;5010247;28;20034;-83
2022/06/17 00:07:04;;;;;;;20.88;12.38;;;;;;;16.59;100.00;97644.41;5009887;28;20129;-83
2022/06/17 00:09:31;;;;;;;22.13;11.77;;;;;;;16.47;100.00;97623.78;4961319;28;20022;-84
2022/06/17 00:11:57;;;;;;;18.27;12.40;;;;;;;16.42;100.00;97615.25;4961092;28;20031;-84
2022/06/17 00:14:25;;;;;;;20.88;12.18;;;;;;;16.47;100.00;97633.72;5009419;28;20030;-84
2022/06/17 00:16:51;;;;;;;17.92;12.35;;;;;;;16.48;100.00;97641.72;4977018;28;20556;-83
2022/06/17 00:19:18;;;;;;;20.13;11.25;;;;;;;16.44;100.00;97645.66;4976809;28;20026;-83
2022/06/17 00:21:46;;;;;;;24.95;11.90;;;;;;;16.32;100.00;97625.09;4976347;28;20030;-83
2022/06/17 00:24:19;;;;;;;18.33;12.13;;;;;;;16.31;100.00;97644.97;4977614;28;20042;-83
2022/06/17 00:26:45;;;;;;;21.50;11.98;;;;;;;16.18;100.00;97620.00;4993394;28;20497;-84
2022/06/17 00:29:12;;;;;;;19.55;12.13;;;;;;;16.32;100.00;97646.69;5009780;28;20022;-83
2022/06/17 00:31:38;;;;;;;19.40;11.57;;;;;;;16.21;100.00;97633.25;4960832;28;20022;-85
2022/06/17 00:34:04;;;;;;;18.30;12.05;;;;;;;16.16;100.00;97622.81;4960974;28;20033;-84
2022/06/17 00:39:51;;;;;;;17.25;12.38;;;;;;;15.94;100.00;97620.16;4995364;28;20056;-83
2022/06/17 00:42:19;;;;;;;15.50;11.98;;;;;;;15.94;100.00;97612.06;5009391;28;20537;-83
2022/06/17 00:45:25;;;;;;;18.50;13.02;;;;;;;16.10;100.00;97639.50;4961365;28;20026;-82
2022/06/17 00:47:53;;;;;;;17.98;12.70;;;;;;;16.09;100.00;97647.72;4975380;28;20050;-84
2022/06/17 00:50:50;;;;;;;21.67;13.10;;;;;;;15.98;100.00;97627.03;4993479;28;20486;-84
2022/06/17 00:53:23;;;;;;;16.77;12.32;;;;;;;15.93;100.00;97629.25;4992444;28;20034;-84
2022/06/17 00:55:53;;;;;;;19.85;12.82;;;;;;;16.03;100.00;97643.69;4992330;28;20033;-84
2022/06/17 00:58:23;;;;;;;23.88;13.20;;;;;;;15.88;100.00;97623.38;4976143;28;20038;-84
2022/06/17 01:00:53;;;;;;;19.52;13.93;;;;;;;15.98;100.00;97642.38;4993034;28;20408;-84
2022/06/17 01:03:24;;;;;;;25.60;13.95;;;;;;;15.89;100.00;97626.94;4976689;28;20018;-84
2022/06/17 01:05:53;;;;;;;27.55;14.73;;;;;;;15.82;100.00;97609.53;4992874;28;20041;-84
2022/06/17 01:11:19;;;;;;;22.25;14.23;;;;;;;15.87;100.00;97627.06;4993035;28;20515;-85
2022/06/17 01:13:48;;;;;;;25.52;14.48;;;;;;;15.76;100.00;97610.88;4991916;28;20026;-85
2022/06/17 01:16:14;;;;;;;22.02;13.10;;;;;;;15.70;100.00;97593.38;4993006;28;20101;-84
2022/06/17 01:18:42;;;;;;;21.10;13.38;;;;;;;15.84;100.00;97624.63;4977010;28;20026;-83
2022/06/17 01:21:15;;;;;;;20.40;13.63;;;;;;;15.81;100.00;97630.25;4976660;28;20118;-83
2022/06/17 01:23:41;;;;;;;21.45;14.13;;;;;;;15.72;100.00;97622.91;4992693;28;20039;-83
2022/06/17 01:26:07;;;;;;;20.90;13.52;;;;;;;15.62;100.00;97614.72;4979890;28;20030;-83
2022/06/17 01:28:32;;;;;;;26.30;14.52;;;;;;;15.52;100.00;97607.50;5015881;28;20397;-84
2022/06/17 01:30:58;;;;;;;25.17;13.80;;;;;;;15.55;100.00;97602.72;5015585;28;20033;-83
2022/06/17 01:33:28;;;;;;;21.83;14.30;;;;;;;15.40;100.00;97589.59;5031776;28;20026;-83
2022/06/17 01:35:55;;;;;;;27.38;15.38;;;;;;;15.54;100.00;97627.94;5031551;28;20090;-82
2022/06/17 01:38:21;;;;;;;20.40;14.25;;;;;;;15.44;100.00;97596.44;5014734;28;20040;-82
2022/06/17 01:40:47;;;;;;;23.50;14.07;;;;;;;15.41;100.00;97605.63;4999132;28;20041;-83
2022/06/17 01:46:40;;;;;;;22.15;15.18;;;;;;;15.39;100.00;97623.75;5033628;28;20067;-84
2022/06/17 01:49:28;;;;;;;24.17;14.93;;;;;;;15.26;100.00;97606.00;5014753;28;20113;-84
2022/06/17 01:55:23;;;;;;;18.17;13.63;;;;;;;15.27;100.00;97602.31;5032801;28;20040;-83
2022/06/17 01:57:59;;;;;;;24.13;14.02;;;;;;;15.30;100.00;97602.94;5031044;28;20496;-84
2022/06/17 02:00:26;;;;;;;26.98;13.60;;;;;;;15.27;100.00;97622.03;4998518;28;20044;-83
2022/06/17 02:03:06;;;;;;;23.63;14.27;;;;;;;15.16;100.00;97605.88;5031332;28;20125;-85
2022/06/17 02:05:33;;;;;;;20.92;13.70;;;;;;;15.07;100.00;97585.91;5015362;28;20025;-84
2022/06/17 02:08:01;;;;;;;22.27;13.25;;;;;;;15.24;100.00;97598.03;4999134;28;20516;-85
2022/06/17 02:10:33;;;;;;;15.50;13.02;;;;;;;15.29;100.00;97605.78;4998868;28;20033;-84
2022/06/17 02:13:01;;;;;;;18.02;13.25;;;;;;;15.20;100.00;97608.19;4998393;28;20499;-84
2022/06/17 02:15:28;;;;;;;23.40;14.02;;;;;;;15.25;100.00;97615.94;5031796;28;20033;-84
2022/06/17 02:17:54;;;;;;;22.90;14.10;;;;;;;15.22;100.00;97613.47;5031673;28;20036;-84
2022/06/17 02:20:21;;;;;;;22.33;14.55;;;;;;;15.18;100.00;97614.69;5031960;28;20037;-84
2022/06/17 02:22:47;;;;;;;30.02;16.15;;;;;;;15.15;100.00;97620.31;5031172;28;20054;-83
2022/06/17 02:25:16;;;;;;;23.50;15.27;;;;;;;15.12;100.00;97615.19;5033991;28;20037;-84
2022/06/17 02:27:43;;;;;;;25.50;13.32;;;;;;;15.17;100.00;97610.28;5034435;28;20136;-84
2022/06/17 02:30:10;;;;;;;27.48;13.98;;;;;;;15.05;100.00;97608.56;5034227;28;20459;-83
2022/06/17 02:32:36;;;;;;;22.73;14.75;;;;;;;14.91;100.00;97592.63;5017651;28;20022;-83
2022/06/17 02:35:13;;;;;;;27.63;14.80;;;;;;;14.94;100.00;97611.25;5034701;28;20033;-83
2022/06/17 02:37:38;;;;;;;23.63;14.70;;;;;;;14.86;100.00;97602.91;5035718;28;20052;-83
2022/06/17 02:40:20;;;;;;;28.17;15.32;;;;;;;14.97;100.00;97608.31;5018067;28;20500;-83
2022/06/17 02:42:46;;;;;;;24.55;15.10;;;;;;;14.88;100.00;97611.72;5001266;28;20029;-82
2022/06/17 02:45:14;;;;;;;25.58;15.50;;;;;;;14.91;100.00;97624.94;5018182;28;20444;-82
2022/06/17 02:47:40;;;;;;;20.02;14.43;;;;;;;14.90;100.00;97620.53;5002176;28;20487;-84
2022/06/17 02:50:07;;;;;;;24.55;15.73;;;;;;;14.89;100.00;97608.06;5018106;28;20031;-83
2022/06/17 02:52:38;;;;;;;24.27;15.05;;;;;;;14.96;100.00;97625.44;5034678;28;20522;-83
2022/06/17 02:55:17;;;;;;;33.40;14.80;;;;;;;14.91;100.00;97600.72;5001300;28;20028;-83
2022/06/17 02:57:46;;;;;;;30.55;15.23;;;;;;;14.85;100.00;97606.56;5034187;28;20029;-83
2022/06/17 03:00:19;;;;;;;26.40;14.48;;;;;;;14.78;100.00;97610.72;5034577;28;20488;-83
2022/06/17 03:02:46;;;;;;;24.30;15.65;;;;;;;14.86;100.00;97624.47;5034207;28;20500;-84
2022/06/17 03:05:26;;;;;;;21.85;16.20;;;;;;;14.90;100.00;97637.56;5017884;28;20030;-84
2022/06/17 03:07:54;;;;;;;24.65;14.25;;;;;;;14.94;100.00;97630.09;5033718;28;20116;-83
2022/06/17 03:10:25;;;;;;;32.92;15.02;;;;;;;14.94;100.00;97628.28;5017240;28;20087;-83
2022/06/17 03:12:56;;;;;;;27.83;14.35;;;;;;;14.98;100.00;97627.03;5033693;28;20037;-84
2022/06/17 03:15:23;;;;;;;23.73;14.93;;;;;;;15.07;100.00;97639.78;5017401;28;20029;-84
2022/06/17 03:17:48;;;;;;;26.58;15.73;;;;;;;15.08;100.00;97640.63;5001038;28;20033;-83
2022/06/17 03:20:20;;;;;;;32.15;16.58;;;;;;;15.02;100.00;97636.59;5017238;28;20030;-83
2022/06/17 03:22:47;;;;;;;28.77;15.00;;;;;;;14.93;100.00;97631.94;5034116;28;20477;-84
2022/06/17 03:25:23;;;;;;;24.92;14.88;;;;;;;14.96;100.00;97625.44;5017012;28;20095;-83
2022/06/17 03:27:59;;;;;;;32.85;15.25;;;;;;;14.97;100.00;97624.47;5017144;28;20085;-84
2022/06/17 03:30:41;;;;;;;36.50;20.10;;;;;;;14.98;100.00;97627.03;5033590;28;20095;-85
2022/06/17 03:33:25;;;;;;;24.50;14.50;;;;;;;14.99;100.00;97635.97;5033649;28;20110;-86
2022/06/17 03:39:22;;;;;;;24.35;15.10;;;;;;;15.07;100.00;97628.16;5035162;28;20495;-85
2022/06/17 03:41:57;;;;;;;25.00;14.65;;;;;;;15.04;100.00;97609.56;5013615;28;20041;-88
2022/06/17 03:44:26;;;;;;;25.38;15.52;;;;;;;15.17;100.00;97621.91;5033357;28;20022;-86
2022/06/17 03:46:53;;;;;;;32.13;16.23;;;;;;;15.19;100.00;97629.91;5000342;28;20029;-87
2022/06/17 03:49:21;;;;;;;29.02;15.57;;;;;;;15.20;100.00;97620.81;5017162;28;20031;-86
2022/06/17 03:51:51;;;;;;;21.38;14.30;;;;;;;15.27;100.00;97618.50;5033405;28;20527;-88
2022/06/17 03:54:16;;;;;;;38.85;14.10;;;;;;;15.30;100.00;97632.59;5032467;28;20036;-88
2022/06/17 03:56:47;;;;;;;31.80;15.02;;;;;;;15.35;100.00;97633.06;5000692;28;20056;-89
2022/06/17 03:59:18;;;;;;;28.48;14.40;;;;;;;15.44;100.00;97643.09;5033452;28;20412;-87
2022/06/17 04:01:52;;;;;;;22.73;14.43;;;;;;;15.39;100.00;97644.47;5027394;28;20535;-88
2022/06/17 04:04:24;;;;;;;28.83;17.15;;;;;;;15.52;100.00;97651.50;5032999;28;20408;-88
2022/06/17 04:06:52;;;;;;;24.38;14.70;;;;;;;15.67;100.00;97650.25;5017261;28;20030;-88
2022/06/17 04:09:20;;;;;;;22.25;15.27;;;;;;;15.76;100.00;97639.69;5017333;28;20060;-88
2022/06/17 04:11:49;;;;;;;28.08;16.60;;;;;;;15.87;100.00;97654.06;5033521;28;20017;-88
2022/06/17 04:14:28;;;;;;;35.40;16.27;;;;;;;16.01;100.00;97652.91;5002476;28;20029;-88
2022/06/17 04:17:07;;;;;;;27.33;16.42;;;;;;;15.98;100.00;97656.72;5012587;28;20116;-88
2022/06/17 04:19:33;;;;;;;30.65;17.38;;;;;;;15.98;100.00;97655.84;5017160;28;20074;-87
2022/06/17 04:22:02;;;;;;;32.70;15.88;;;;;;;16.11;100.00;97667.38;5017208;28;20029;-85
2022/06/17 04:24:29;;;;;;;26.40;15.40;;;;;;;16.15;100.00;97650.78;5008009;28;20048;-88
2022/06/17 04:26:59;;;;;;;24.30;16.58;;;;;;;16.40;100.00;97671.19;5029986;28;20037;-91
2022/06/17 04:29:43;;;;;;;34.20;18.42;;;;;;;16.48;100.00;97668.72;5016508;28;20053;-91
2022/06/17 04:32:31;;;;;;;50.78;18.83;;;;;;;16.62;100.00;97665.75;5030970;28;20041;-89
2022/06/17 04:34:57;;;;;;;45.38;22.10;;;;;;;16.62;100.00;97648.69;5030769;28;20026;-89
2022/06/17 04:37:23;;;;;;;47.95;24.23;;;;;;;16.73;100.00;97646.78;5030474;28;20034;-89
2022/06/17 04:39:57;;;;;;;62.67;26.33;;;;;;;17.05;100.00;97673.75;5029927;28;20029;-89
2022/06/17 04:42:42;;;;;;;68.65;22.95;;;;;;;17.15;100.00;97658.47;5013492;28;20089;-89
2022/06/17 04:45:27;;;;;;;27.48;17.33;;;;;;;17.17;100.00;97644.78;5013759;28;20433;-88
2022/06/17 04:47:53;;;;;;;38.63;17.90;;;;;;;17.31;100.00;97637.22;5006210;28;20030;-88
2022/06/17 04:50:22;;;;;;;38.92;15.88;;;;;;;17.96;100.00;97635.06;5031755;28;20037;-89
2022/06/17 04:52:51;;;;;;;27.02;14.75;;;;;;;18.67;100.00;97629.31;4995267;28;20022;-90
2022/06/17 04:55:38;;;;;;;47.05;14.65;;;;;;;19.80;100.00;97646.53;4995589;28;20403;-90
2022/06/17 04:58:04;;;;;;;25.75;12.90;;;;;;;21.33;89.63;97641.84;4997570;28;20111;-90
2022/06/17 05:00:30;;;;;;;27.27;12.25;;;;;;;22.75;78.36;97640.13;5029334;28;20030;-89
2022/06/17 05:02:57;;;;;;;16.05;10.73;;;;;;;23.60;72.19;97609.56;5012040;28;20042;-89
2022/06/17 05:05:36;;;;;;;34.15;11.07;;;;;;;25.06;66.09;97628.84;5029112;28;20036;-89
2022/06/17 05:08:04;;;;;;;32.65;12.10;;;;;;;25.50;62.05;97631.72;5013152;28;20118;-91
2022/06/17 05:10:39;;;;;;;24.52;10.98;;;;;;;25.70;60.00;97626.56;5014542;28;20494;-91
2022/06/17 05:13:12;;;;;;;23.23;9.95;;;;;;;25.53;60.62;97633.25;4997100;28;20469;-89
2022/06/17 05:15:38;;;;;;;29.23;9.23;;;;;;;25.48;59.94;97639.25;5030102;28;20022;-84
2022/06/17 05:18:04;;;;;;;21.92;9.60;;;;;;;26.02;59.23;97628.94;4991639;28;20026;-84
2022/06/17 05:20:30;;;;;;;22.98;8.30;;;;;;;26.50;57.30;97632.09;5022799;28;20140;-85
2022/06/17 05:23:01;;;;;;;35.90;8.00;;;;;;;26.61;55.96;97615.16;5028692;28;20485;-85
2022/06/17 05:25:33;;;;;;;23.80;8.02;;;;;;;26.27;57.24;97633.09;5027802;28;20030;-86
2022/06/17 05:27:58;;;;;;;;;;;;;;;28.11;53.03;97623.06;5010999;28;20050;-86
2022/06/17 05:30:25;;;;;;;15.20;7.68;;;;;;;28.22;51.90;97614.22;5007887;28;20399;-87
2022/06/17 05:32:52;;;;;;;12.95;7.22;;;;;;;29.46;48.42;97614.63;5027475;28;20485;-87
2022/06/17 05:35:22;;;;;;;25.05;7.88;;;;;;;29.12;48.99;97622.19;4995017;28;20029;-86
2022/06/17 05:37:47;;;;;;;13.35;6.75;;;;;;;29.01;47.95;97604.34;4979727;28;20038;-85
2022/06/17 05:40:13;;;;;;;14.68;9.20;;;;;;;28.91;49.21;97628.72;5028147;28;20473;-84
2022/06/17 05:42:40;;;;;;;14.05;8.93;;;;;;;29.21;46.88;97607.13;5027653;28;20033;-82
2022/06/17 05:45:07;;;;;;;20.10;7.65;;;;;;;28.40;48.76;97612.63;5012530;28;20030;-83
2022/06/17 05:47:32;;;;;;;17.33;9.15;;;;;;;29.54;45.81;97589.56;5005978;28;20034;-83
2022/06/17 05:49:58;;;;;;;25.70;9.00;;;;;;;31.22;43.16;97591.31;5027760;28;20394;-83
2022/06/17 05:52:23;;;;;;;13.43;7.00;;;;;;;30.55;43.55;97599.13;5030169;28;20493;-85
2022/06/17 05:54:49;;;;;;;17.00;7.53;;;;;;;32.00;41.06;97581.44;5003377;28;20057;-85
2022/06/17 05:57:16;;;;;;;23.40;10.82;;;;;;;31.11;41.32;97584.56;5005084;28;20025;-84
2022/06/17 05:59:41;;;;;;;15.30;7.57;;;;;;;30.42;42.44;97592.81;5035660;28;20109;-83
2022/06/17 06:02:10;;;;;;;14.73;5.68;;;;;;;30.30;42.16;97584.31;5021405;28;20084;-83
2022/06/17 06:04:36;;;;;;;15.38;7.00;;;;;;;30.95;41.63;97585.09;5035985;28;20030;-84
2022/06/17 06:07:02;;;;;;;13.40;5.18;;;;;;;32.68;38.20;97571.94;5037473;28;20034;-83
2022/06/17 06:09:27;;;;;;;8.13;5.43;;;;;;;31.72;38.67;97570.88;5017317;28;20098;-83
2022/06/17 06:11:53;;;;;;;11.55;5.60;;;;;;;31.31;39.84;97565.09;5039743;28;20061;-82
2022/06/17 06:14:21;;;;;;;7.07;5.28;;;;;;;32.73;38.11;97565.72;5004638;28;20045;-84
2022/06/17 06:16:46;;;;;;;32.95;5.35;;;;;;;32.61;37.60;97568.41;5020834;28;20539;-83
2022/06/17 06:19:12;;;;;;;8.88;5.80;;;;;;;32.35;38.79;97571.50;5006628;28;20029;-83
2022/06/17 06:21:38;;;;;;;8.70;6.90;;;;;;;32.81;37.87;97567.28;5008305;28;20030;-83
2022/06/17 06:24:03;;;;;;;11.68;5.70;;;;;;;33.96;36.10;97561.16;5026215;28;20038;-83
2022/06/17 06:26:29;;;;;;;10.50;6.97;;;;;;;33.74;36.40;97557.28;5007377;28;20084;-83
2022/06/17 06:28:56;;;;;;;11.38;5.43;;;;;;;33.51;36.31;97552.53;5040271;28;20057;-82
2022/06/17 06:31:39;;;;;;;5.35;4.78;;;;;;;34.21;34.77;97547.00;5018427;28;20033;-84
2022/06/17 06:34:05;;;;;;;9.35;5.82;;;;;;;33.24;36.83;97545.75;5040425;28;20030;-83
2022/06/17 06:36:31;;;;;;;6.22;4.80;;;;;;;33.99;36.27;97554.25;5040630;28;20029;-84
2022/06/17 06:38:56;;;;;;;8.45;6.07;;;;;;;35.62;34.10;97548.94;5022947;28;20472;-85
2022/06/17 06:41:22;;;;;;;12.02;5.43;;;;;;;35.89;33.78;97547.97;5012597;28;20041;-84
2022/06/17 06:43:48;;;;;;;17.95;11.48;;;;;;;33.26;36.38;97552.75;5037949;28;20030;-85
2022/06/17 06:46:17;;;;;;;15.27;5.50;;;;;;;31.18;40.78;97566.03;5018629;28;20030;-85
2022/06/17 06:48:43;;;;;;;18.60;11.60;;;;;;;32.18;39.76;97564.88;5017542;28;20040;-83
2022/06/17 06:51:08;;;;;;;13.15;6.68;;;;;;;31.63;39.61;97545.44;5021471;28;20022;-85
2022/06/17 06:53:34;;;;;;;12.32;5.30;;;;;;;29.99;43.23;97565.75;5011884;28;20049;-84
2022/06/17 06:56:01;;;;;;;19.17;6.32;;;;;;;30.43;43.00;97556.69;5012519;28;20468;-84
2022/06/17 06:58:27;;;;;;;19.80;6.30;;;;;;;32.67;39.99;97556.38;5017323;28;20485;-84
2022/06/17 07:00:54;;;;;;;11.07;6.57;;;;;;;33.61;38.30;97555.59;5024351;28;20032;-84
2022/06/17 07:03:21;;;;;;;8.50;4.80;;;;;;;34.78;36.47;97554.34;5033458;28;20482;-84
2022/06/17 07:05:52;;;;;;;28.95;15.93;;;;;;;34.47;36.23;97540.91;5012619;28;20033;-85
2022/06/17 07:08:20;;;;;;;19.42;11.57;;;;;;;33.57;37.22;97545.19;5015112;28;20132;-85
2022/06/17 07:10:47;;;;;;;12.30;7.53;;;;;;;35.03;34.32;97539.22;5016340;28;20030;-85
2022/06/17 07:13:13;;;;;;;5.13;3.40;;;;;;;36.09;30.85;97521.53;5000166;28;20144;-86
2022/06/17 07:15:40;;;;;;;5.95;3.88;;;;;;;36.73;31.44;97534.63;4998275;28;20030;-86
2022/06/17 07:18:27;;;;;;;4.68;3.40;;;;;;;36.36;30.62;97528.03;5015058;28;20064;-85
2022/06/17 07:20:55;;;;;;;5.68;3.13;;;;;;;35.32;31.82;97518.63;5016237;28;20413;-85
2022/06/17 07:23:24;;;;;;;4.20;3.60;;;;;;;35.97;31.42;97509.63;5016941;28;20036;-85
2022/06/17 07:25:50;;;;;;;6.75;3.70;;;;;;;36.67;30.62;97524.53;5015214;28;20030;-86
2022/06/17 07:28:19;;;;;;;47.97;5.53;;;;;;;36.16;29.88;97505.47;5032865;28;20132;-86
2022/06/17 07:30:47;;;;;;;3.85;3.08;;;;;;;35.40;31.31;97511.78;4999502;28;20027;-85
2022/06/17 07:33:13;;;;;;;4.13;3.00;;;;;;;35.25;31.89;97527.16;4998085;28;20022;-85
2022/06/17 07:35:40;;;;;;;13.23;3.70;;;;;;;35.61;31.09;97502.69;5012049;28;20493;-84
2022/06/17 07:40:50;;;;;;;6.70;3.67;;;;;;;36.63;29.97;97511.38;5027762;28;20041;-85
2022/06/17 07:43:17;;;;;;;10.05;4.00;;;;;;;35.46;31.24;97508.00;5009885;28;20022;-85
2022/06/17 07:45:43;;;;;;;3.95;3.53;;;;;;;35.41;30.97;97507.94;4994255;28;20033;-84
2022/06/17 07:48:12;;;;;;;8.13;3.78;;;;;;;36.73;29.26;97506.75;5012545;28;20035;-85
2022/06/17 07:50:38;;;;;;;6.18;3.70;;;;;;;36.53;30.20;97512.09;5013759;28;20551;-85
2022/06/17 07:53:04;;;;;;;15.75;3.50;;;;;;;36.66;29.02;97494.13;5012640;28;20022;-84
2022/06/17 07:55:30;;;;;;;7.00;3.45;;;;;;;36.58;29.65;97502.97;5011850;28;20034;-84
2022/06/17 07:57:55;;;;;;;4.28;3.25;;;;;;;35.76;30.52;97498.22;5011897;28;20032;-84
2022/06/17 08:00:21;;;;;;;5.55;3.40;;;;;;;36.32;29.72;97499.00;4990358;28;20033;-85
2022/06/17 08:02:46;;;;;;;5.45;4.03;;;;;;;36.87;29.02;97508.03;5008572;28;20065;-84
2022/06/17 08:05:12;;;;;;;7.15;3.60;;;;;;;36.82;29.82;97498.75;5011747;28;20034;-85
2022/06/17 08:07:38;;;;;;;13.18;7.72;;;;;;;36.95;29.52;97504.75;5027652;28;20478;-84
2022/06/17 08:10:04;;;;;;;14.30;5.32;;;;;;;38.27;28.07;97491.84;5009199;28;20405;-84
2022/06/17 08:12:30;;;;;;;9.35;8.38;;;;;;;37.13;29.19;97502.72;5011379;28;20531;-83
2022/06/17 08:14:56;;;;;;;6.22;3.50;;;;;;;38.70;27.43;97493.41;4994028;28;20074;-86
2022/06/17 08:17:23;;;;;;;4.63;3.85;;;;;;;38.57;28.16;97503.16;5011684;28;20030;-85
2022/06/17 08:19:51;;;;;;;5.22;4.72;;;;;;;38.52;27.28;97488.31;4994596;28;20024;-84
2022/06/17 08:22:19;;;;;;;5.40;4.63;;;;;;;38.94;26.41;97478.66;5027766;28;20025;-84
2022/06/17 08:24:44;;;;;;;8.05;5.05;;;;;;;39.56;26.19;97486.00;5010024;28;20033;-84
2022/06/17 08:27:13;;;;;;;11.23;5.30;;;;;;;40.56;24.73;97478.47;5013687;28;20046;-85
2022/06/17 08:29:39;;;;;;;6.00;5.00;;;;;;;40.45;25.25;97460.00;4997520;28;20041;-85
2022/06/17 08:34:49;;;;;;;4.45;4.05;;;;;;;38.75;26.43;97469.09;5007738;28;20481;-86
2022/06/17 08:37:15;;;;;;;7.03;4.80;;;;;;;37.09;28.79;97465.28;5007730;28;20030;-85
2022/06/17 08:39:42;;;;;;;15.90;5.45;;;;;;;39.05;26.80;97479.50;5009388;28;20029;-83
2022/06/17 08:42:36;;;;;;;5.88;5.38;;;;;;;38.46;25.90;97465.91;5027555;28;20486;-84
2022/06/17 08:45:25;;;;;;;8.55;6.10;;;;;;;38.29;26.17;97464.44;5024162;28;20065;-85
2022/06/17 08:48:06;;;;;;;7.78;5.30;;;;;;;38.95;25.08;97466.34;5024389;28;20547;-84
2022/06/17 08:50:34;;;;;;;9.00;6.35;;;;;;;39.73;25.33;97458.53;5004935;28;20107;-84
2022/06/17 08:53:14;;;;;;;6.60;5.97;;;;;;;39.39;23.78;97463.03;5003409;28;20034;-85
2022/06/17 08:55:51;;;;;;;8.57;5.32;;;;;;;40.61;23.08;97458.78;5010533;28;20032;-85
2022/06/17 08:58:51;;;;;;;6.60;5.40;;;;;;;40.71;23.21;97452.28;5012926;28;20044;-84
2022/06/17 09:01:25;;;;;;;14.32;10.45;;;;;;;39.07;24.71;97454.06;5019130;28;20065;-83
2022/06/17 09:04:28;;;;;;;9.15;6.60;;;;;;;39.60;25.03;97461.88;5010148;28;20454;-84
2022/06/17 09:07:18;;;;;;;10.70;7.45;;;;;;;38.72;25.64;97461.25;4988782;28;20026;-83
2022/06/17 09:10:37;;;;;;;10.05;5.72;;;;;;;37.81;26.17;97457.19;4994231;28;20033;-84
2022/06/17 09:13:17;;;;;;;9.32;7.32;;;;;;;37.23;27.35;97455.34;4977117;28;20029;-84
2022/06/17 09:15:46;;;;;;;9.45;6.70;;;;;;;34.62;29.80;97459.78;5012325;28;20053;-84
2022/06/17 09:18:28;;;;;;;11.05;6.95;;;;;;;33.54;32.14;97468.81;5027115;28;20494;-84
2022/06/17 09:20:59;;;;;;;;;;;;;;;32.06;34.22;97470.69;4994796;28;20026;-83
2022/06/17 09:23:30;;;;;;;18.38;6.68;;;;;;;31.05;36.59;97473.00;4994741;28;20345;-85
2022/06/17 09:25:56;;;;;;;34.42;16.02;;;;;;;32.41;35.35;97481.94;5028545;28;20025;-83
2022/06/17 09:28:54;;;;;;;12.70;6.53;;;;;;;35.49;31.31;97483.28;5031056;28;20040;-84
2022/06/17 09:31:25;;;;;;;6.97;6.18;;;;;;;36.28;29.90;97467.16;5030585;28;20028;-83
2022/06/17 09:34:44;;;;;;;11.45;7.40;;;;;;;36.32;30.08;97482.28;5031449;28;20029;-85
2022/06/17 09:37:23;;;;;;;6.80;5.55;;;;;;;36.35;27.88;97465.03;4990471;28;20523;-85
2022/06/17 09:39:59;;;;;;;6.28;5.25;;;;;;;37.43;26.00;97456.38;5017780;28;20519;-85
2022/06/17 09:42:46;;;;;;;17.50;5.25;;;;;;;38.26;25.79;97459.38;5050656;28;20021;-85
2022/06/17 09:45:38;;;;;;;16.50;7.57;;;;;;;37.86;27.29;97460.00;5034178;28;20113;-85
2022/06/17 09:48:51;;;;;;;6.43;4.80;;;;;;;37.79;26.56;97460.25;5033633;28;20033;-85
2022/06/17 09:51:38;;;;;;;6.88;4.57;;;;;;;37.56;26.30;97459.84;4992227;28;20037;-85
2022/06/17 09:54:13;;;;;;;12.18;5.18;;;;;;;37.61;26.52;97459.84;5007244;28;20128;-85
2022/06/17 09:56:51;;;;;;;10.43;4.93;;;;;;;37.13;26.81;97456.09;5017213;28;20029;-84
2022/06/17 09:59:24;;;;;;;5.95;4.95;;;;;;;39.37;25.14;97459.66;5033880;28;20112;-85
2022/06/17 10:01:53;;;;;;;13.27;8.85;;;;;;;38.20;26.45;97450.16;5017148;28;20029;-84
2022/06/17 10:04:19;;;;;;;11.57;4.90;;;;;;;37.96;26.41;97449.75;5033791;28;20029;-85
2022/06/17 10:06:57;;;;;;;6.20;4.78;;;;;;;37.84;25.10;97445.47;5033468;28;20040;-84
2022/06/17 10:09:48;;;;;;;4.60;4.20;;;;;;;37.51;26.41;97445.81;5033519;28;20021;-85
2022/06/17 10:12:26;;;;;;;9.70;4.80;;;;;;;39.57;24.69;97448.44;5031884;28;20464;-85
2022/06/17 10:15:16;;;;;;;6.93;5.00;;;;;;;40.24;23.49;97448.00;5016793;28;20504;-85
2022/06/17 10:18:34;;;;;;;5.97;4.60;;;;;;;40.07;25.10;97445.53;5017641;28;20037;-84
2022/06/17 10:21:12;;;;;;;9.90;5.18;;;;;;;40.56;22.82;97445.63;5048482;28;20029;-84
2022/06/17 10:23:45;;;;;;;13.20;5.82;;;;;;;39.35;24.59;97434.72;5021759;28;20040;-85
2022/06/17 10:26:23;;;;;;;18.63;7.28;;;;;;;41.04;23.07;97446.72;5024042;28;20026;-83
2022/06/17 10:29:08;;;;;;;9.35;5.85;;;;;;;41.60;22.76;97435.03;5013386;28;20034;-85
2022/06/17 10:31:40;;;;;;;8.10;5.15;;;;;;;41.23;22.89;97437.59;5013661;28;20404;-85
2022/06/17 10:34:25;;;;;;;5.45;4.93;;;;;;;42.32;22.25;97433.97;5013226;28;20025;-86
2022/06/17 10:36:54;;;;;;;7.40;4.93;;;;;;;42.58;22.19;97426.03;5011661;28;20037;-85
2022/06/17 10:39:22;;;;;;;12.52;5.18;;;;;;;40.30;24.60;97430.03;5012901;28;20493;-86
2022/06/17 10:41:48;;;;;;;5.13;4.63;;;;;;;41.02;23.59;97439.75;5017457;28;20028;-86
2022/06/17 10:44:15;;;;;;;20.73;5.05;;;;;;;41.43;22.48;97417.78;5029526;28;20449;-86
2022/06/17 10:46:44;;;;;;;9.30;4.70;;;;;;;38.71;24.81;97427.94;5012437;28;20457;-84
2022/06/17 10:49:28;;;;;;;7.22;5.30;;;;;;;37.46;26.90;97432.69;5013128;28;20054;-84
2022/06/17 10:51:54;;;;;;;10.23;5.93;;;;;;;37.42;27.63;97434.28;5011964;28;20026;-84
2022/06/17 10:54:34;;;;;;;8.32;4.88;;;;;;;39.23;25.46;97436.97;5029433;28;20030;-84
2022/06/17 10:57:07;;;;;;;8.68;4.68;;;;;;;38.82;26.15;97435.28;5012877;28;20113;-84
2022/06/17 10:59:41;;;;;;;11.13;4.80;;;;;;;40.70;24.37;97436.59;5012888;28;20037;-84
2022/06/17 11:02:31;;;;;;;7.15;4.90;;;;;;;42.84;22.13;97432.13;5029085;28;20033;-84
2022/06/17 11:05:03;;;;;;;6.97;4.80;;;;;;;43.17;22.20;97422.59;5012596;28;20045;-84
2022/06/17 11:07:31;;;;;;;8.85;4.85;;;;;;;42.60;22.29;97429.41;5012798;28;20394;-84
2022/06/17 11:10:00;;;;;;;18.35;5.03;;;;;;;42.91;21.82;97429.78;5014296;28;20041;-84
2022/06/17 11:12:38;;;;;;;6.38;4.90;;;;;;;43.12;21.48;97423.56;5006865;28;20133;-84
2022/06/17 11:15:20;;;;;;;5.03;4.53;;;;;;;42.48;21.54;97410.13;5029656;28;20502;-84
2022/06/17 11:17:49;;;;;;;6.00;4.93;;;;;;;42.98;21.66;97417.00;5011020;28;20046;-84
2022/06/17 11:20:14;;;;;;;10.85;5.68;;;;;;;41.39;22.51;97423.16;5028908;28;20033;-84
2022/06/17 11:22:40;;;;;;;22.05;5.05;;;;;;;38.46;25.34;97423.13;5014248;28;20084;-84
2022/06/17 11:25:26;;;;;;;12.18;5.35;;;;;;;38.30;25.32;97415.81;5013014;28;20071;-84
2022/06/17 11:28:18;;;;;;;7.15;5.40;;;;;;;39.08;25.36;97416.50;5030350;28;20486;-85
2022/06/17 11:31:04;;;;;;;16.20;4.43;;;;;;;37.81;27.17;97418.91;5022644;28;20068;-84
2022/06/17 11:33:32;;;;;;;15.27;4.63;;;;;;;37.63;26.90;97415.72;5041594;28;20025;-84
2022/06/17 11:36:04;;;;;;;7.40;5.32;;;;;;;36.68;28.24;97425.81;5028934;28;20123;-82
2022/06/17 11:38:31;;;;;;;11.43;4.57;;;;;;;38.03;26.54;97417.91;5047536;28;20029;-83
2022/06/17 11:41:00;;;;;;;20.00;5.28;;;;;;;37.82;26.53;97412.22;5047379;28;20041;-84
2022/06/17 11:43:41;;;;;;;4.75;4.10;;;;;;;37.88;25.62;97405.53;5047496;28;20047;-83
2022/06/17 11:46:18;;;;;;;7.35;4.35;;;;;;;37.96;25.67;97404.22;5016332;28;20097;-85
2022/06/17 11:48:47;;;;;;;6.72;3.70;;;;;;;38.40;25.42;97401.84;5047614;28;20093;-83
2022/06/17 11:51:23;;;;;;;5.90;3.78;;;;;;;38.48;25.86;97402.19;5047974;28;20392;-84
2022/06/17 11:53:58;;;;;;;6.65;4.28;;;;;;;37.32;26.80;97400.69;5045171;28;20099;-83
2022/06/17 11:56:39;;;;;;;13.43;4.90;;;;;;;35.86;28.42;97406.44;5023498;28;20037;-83
2022/06/17 11:59:27;;;;;;;8.57;4.90;;;;;;;35.85;29.32;97407.53;5048780;28;20136;-83
2022/06/17 12:01:56;;;;;;;42.72;6.15;;;;;;;34.32;31.68;97415.56;5052449;28;20080;-82
2022/06/17 12:04:45;;;;;;;6.47;4.43;;;;;;;35.22;30.33;97415.53;5048237;28;20032;-84
2022/06/17 12:07:48;;;;;;;9.30;4.38;;;;;;;34.11;31.66;97414.31;5045257;28;20036;-84